Time;durP1;ratioP1;P1;durP2;ratioP2;P2;SDS_P1;SDS_P2;PMS_P1;PMS_P2;Temp;Humidity;BMP_temperature;BMP_pressure;BME280_temperature;BME280_humidity;BME280_pressure;Samples;Min_cycle;Max_cycle;Signal;HPM_P1;HPM_P2
2024/01/26 00:00:42;;;;;;;8.10;7.80;;;12.40;32.40;;;;;;6283731;22;20146;-81
2024/01/26 00:03:08;;;;;;;8.00;7.70;;;12.40;32.60;;;;;;6258796;22;20159;-82
2024/01/26 00:05:33;;;;;;;7.57;7.27;;;12.30;32.80;;;;;;6284289;22;20182;-81
2024/01/26 00:07:59;;;;;;;8.23;7.90;;;12.40;33.10;;;;;;6284600;22;20169;-82
2024/01/26 00:10:25;;;;;;;7.50;7.30;;;12.30;33.50;;;;;;6285135;22;20150;-81
2024/01/26 00:12:50;;;;;;;7.53;7.23;;;12.30;33.50;;;;;;6257774;22;20866;-81
2024/01/26 00:15:16;;;;;;;6.73;6.53;;;12.30;32.70;;;;;;6256447;22;20195;-82
2024/01/26 00:17:41;;;;;;;7.33;7.10;;;12.30;32.10;;;;;;6256820;22;20154;-80
2024/01/26 00:20:09;;;;;;;6.40;6.20;;;12.40;31.90;;;;;;6283383;22;20378;-82
2024/01/26 00:22:34;;;;;;;6.77;6.57;;;12.40;32.20;;;;;;6256649;22;20155;-81
2024/01/26 00:25:00;;;;;;;6.63;6.33;;;12.40;32.00;;;;;;6282063;22;20449;-78
2024/01/26 00:27:26;;;;;;;6.80;6.50;;;12.40;31.60;;;;;;6262888;22;20584;-77
2024/01/26 00:29:51;;;;;;;6.93;6.73;;;12.20;32.40;;;;;;6283057;22;20143;-79
2024/01/26 00:32:17;;;;;;;7.20;7.00;;;12.20;32.40;;;;;;6256970;22;20604;-79
2024/01/26 00:34:43;;;;;;;7.40;7.10;;;12.00;33.20;;;;;;6288003;22;20168;-79
2024/01/26 00:37:08;;;;;;;7.53;7.33;;;11.90;33.20;;;;;;6274317;22;20508;-79
2024/01/26 00:39:34;;;;;;;7.23;6.93;;;12.00;33.20;;;;;;6274281;22;20146;-79
2024/01/26 00:41:59;;;;;;;7.07;6.87;;;12.00;33.20;;;;;;6274450;22;20147;-79
2024/01/26 00:44:25;;;;;;;7.30;6.90;;;12.20;33.10;;;;;;6273744;22;20190;-79
2024/01/26 00:46:50;;;;;;;6.87;6.67;;;12.20;32.50;;;;;;6273632;22;20147;-78
2024/01/26 00:49:16;;;;;;;8.27;7.97;;;12.20;31.70;;;;;;6249503;23;20590;-76
2024/01/26 00:51:41;;;;;;;7.20;7.00;;;12.00;33.10;;;;;;6249248;23;20143;-76
2024/01/26 00:54:07;;;;;;;6.53;6.33;;;11.90;33.10;;;;;;6222299;23;20499;-76
2024/01/26 00:56:32;;;;;;;7.20;7.00;;;11.70;34.50;;;;;;6248776;23;20226;-77
2024/01/26 00:58:59;;;;;;;7.03;6.83;;;11.60;34.10;;;;;;6223054;23;20167;-78
2024/01/26 01:01:24;;;;;;;7.00;6.80;;;11.60;34.60;;;;;;6251407;23;20240;-79
2024/01/26 01:03:50;;;;;;;7.43;7.23;;;11.40;35.30;;;;;;6250571;22;20674;-78
2024/01/26 01:06:16;;;;;;;7.60;7.30;;;11.40;35.70;;;;;;6222812;23;20187;-79
2024/01/26 01:08:41;;;;;;;7.27;6.97;;;11.50;35.60;;;;;;6252453;23;20144;-79
2024/01/26 01:11:07;;;;;;;7.07;6.87;;;11.40;35.30;;;;;;6227010;23;20385;-79
2024/01/26 01:13:33;;;;;;;7.20;7.00;;;11.50;35.30;;;;;;6232128;23;20183;-78
2024/01/26 01:16:00;;;;;;;6.80;6.60;;;11.60;34.90;;;;;;6233279;23;20198;-78
2024/01/26 01:18:26;;;;;;;7.37;7.17;;;11.60;34.50;;;;;;6234242;23;20445;-77
2024/01/26 01:20:52;;;;;;;7.70;7.50;;;11.70;34.70;;;;;;6232505;23;20390;-78
2024/01/26 01:23:18;;;;;;;7.90;7.60;;;11.70;34.20;;;;;;6224762;23;20170;-78
2024/01/26 01:25:43;;;;;;;7.90;7.60;;;11.80;34.20;;;;;;6247490;22;20187;-77
2024/01/26 01:28:09;;;;;;;7.17;6.97;;;11.90;33.70;;;;;;6248961;23;20366;-76
2024/01/26 01:30:34;;;;;;;7.80;7.50;;;11.70;34.70;;;;;;6248820;23;20392;-77
2024/01/26 01:33:00;;;;;;;7.50;7.30;;;11.50;37.20;;;;;;6248732;23;20147;-76
2024/01/26 01:35:26;;;;;;;7.17;6.97;;;11.40;37.80;;;;;;6224347;23;20179;-78
2024/01/26 01:37:51;;;;;;;7.10;6.80;;;11.20;38.50;;;;;;6253496;23;20148;-79
2024/01/26 01:40:17;;;;;;;6.93;6.70;;;11.20;39.20;;;;;;6253483;23;20236;-79
2024/01/26 01:42:42;;;;;;;7.70;7.40;;;11.10;39.20;;;;;;6225176;23;20147;-79
2024/01/26 01:45:13;;;;;;;7.27;7.07;;;11.20;39.40;;;;;;6252075;22;20187;-79
2024/01/26 01:47:39;;;;;;;6.87;6.67;;;11.10;39.20;;;;;;6224696;23;20155;-78
2024/01/26 01:50:06;;;;;;;7.10;6.90;;;11.20;39.20;;;;;;6223106;23;20482;-78
2024/01/26 01:52:34;;;;;;;7.27;7.07;;;11.20;38.70;;;;;;6249896;23;20492;-78
2024/01/26 01:55:00;;;;;;;6.93;6.73;;;11.40;38.70;;;;;;6248310;22;20400;-78
2024/01/26 01:57:27;;;;;;;7.10;6.90;;;11.50;38.00;;;;;;6248977;23;20379;-76
2024/01/26 01:59:53;;;;;;;7.37;7.17;;;11.60;37.00;;;;;;6246974;23;20379;-78
2024/01/26 02:02:23;;;;;;;7.23;7.03;;;11.60;36.30;;;;;;6249240;23;20397;-78
2024/01/26 02:04:50;;;;;;;7.23;7.03;;;11.60;36.20;;;;;;6247846;22;20479;-78
2024/01/26 02:07:15;;;;;;;7.10;6.90;;;11.70;36.20;;;;;;6248783;23;20387;-78
2024/01/26 02:09:41;;;;;;;7.37;7.17;;;11.70;34.80;;;;;;6248589;23;20374;-78
2024/01/26 02:12:06;;;;;;;7.40;7.10;;;11.50;35.10;;;;;;6249333;23;20187;-79
2024/01/26 02:14:32;;;;;;;7.10;6.90;;;11.30;35.70;;;;;;6221301;23;20578;-77
2024/01/26 02:17:00;;;;;;;7.23;7.03;;;11.20;36.60;;;;;;6249232;23;20213;-77
2024/01/26 02:19:27;;;;;;;7.47;7.27;;;11.20;36.70;;;;;;6248008;23;20369;-78
2024/01/26 02:21:53;;;;;;;8.00;7.70;;;11.00;37.20;;;;;;6249254;23;20375;-79
2024/01/26 02:24:19;;;;;;;7.30;7.10;;;11.00;37.60;;;;;;6248713;22;20410;-78
2024/01/26 02:26:45;;;;;;;7.53;7.33;;;10.90;38.00;;;;;;6248238;23;20748;-78
2024/01/26 02:29:10;;;;;;;6.83;6.63;;;11.00;38.50;;;;;;6248444;23;20182;-78
2024/01/26 02:31:36;;;;;;;7.60;7.40;;;11.00;37.80;;;;;;6248163;23;20375;-77
2024/01/26 02:34:02;;;;;;;6.93;6.73;;;11.00;37.60;;;;;;6247973;22;20167;-77
2024/01/26 02:36:28;;;;;;;7.23;7.03;;;11.00;37.90;;;;;;6248272;23;20151;-78
2024/01/26 02:38:54;;;;;;;6.90;6.70;;;10.90;37.50;;;;;;6248553;23;20383;-78
2024/01/26 02:41:20;;;;;;;6.87;6.67;;;11.00;37.80;;;;;;6247672;23;20424;-77
2024/01/26 02:43:45;;;;;;;7.00;6.80;;;11.00;37.50;;;;;;6247624;22;20171;-78
2024/01/26 02:46:11;;;;;;;7.70;7.40;;;11.10;37.30;;;;;;6246252;23;20174;-77
2024/01/26 02:48:37;;;;;;;6.87;6.67;;;11.10;36.70;;;;;;6247771;23;20154;-77
2024/01/26 02:51:03;;;;;;;6.87;6.63;;;11.00;37.00;;;;;;6247531;23;20151;-78
2024/01/26 02:53:29;;;;;;;7.00;6.80;;;11.00;37.40;;;;;;6249654;23;20362;-78
2024/01/26 02:55:54;;;;;;;6.87;6.67;;;11.00;37.40;;;;;;6250943;22;20469;-77
2024/01/26 02:58:20;;;;;;;6.83;6.63;;;11.00;37.10;;;;;;6253633;23;20167;-78
2024/01/26 03:00:46;;;;;;;6.70;6.50;;;11.00;36.90;;;;;;6252641;23;20171;-77
2024/01/26 03:03:13;;;;;;;6.83;6.63;;;10.80;36.70;;;;;;6248566;23;20636;-78
2024/01/26 03:05:38;;;;;;;7.00;6.80;;;10.80;37.30;;;;;;6219496;23;20429;-77
2024/01/26 03:11:38;;;;;;;7.37;7.07;;;10.90;37.70;;;;;;6246694;23;20150;-78
2024/01/26 03:14:07;;;;;;;6.73;6.53;;;10.90;36.70;;;;;;6246699;22;20418;-78
2024/01/26 03:16:33;;;;;;;7.17;6.97;;;10.90;37.10;;;;;;6247276;23;20393;-78
2024/01/26 03:18:59;;;;;;;7.93;7.63;;;10.90;36.80;;;;;;6246992;23;20385;-78
2024/01/26 03:21:24;;;;;;;7.03;6.83;;;10.90;36.50;;;;;;6247121;23;20708;-79
2024/01/26 03:23:50;;;;;;;8.00;7.70;;;10.90;36.10;;;;;;6247041;22;20151;-78
2024/01/26 03:26:16;;;;;;;7.93;7.53;;;10.90;36.40;;;;;;6245726;23;20171;-78
2024/01/26 03:28:41;;;;;;;7.40;7.10;;;10.90;36.50;;;;;;6220001;23;20155;-78
2024/01/26 03:31:07;;;;;;;7.23;7.03;;;10.90;36.30;;;;;;6246362;23;20613;-78
2024/01/26 03:33:32;;;;;;;7.80;7.50;;;10.80;36.40;;;;;;6246663;23;20156;-78
2024/01/26 03:35:58;;;;;;;7.17;6.97;;;10.90;36.40;;;;;;6246106;22;20250;-78
2024/01/26 03:38:23;;;;;;;7.57;7.27;;;10.90;36.30;;;;;;6249095;23;20161;-77
2024/01/26 03:40:48;;;;;;;7.07;6.77;;;10.90;36.40;;;;;;6249534;23;20148;-78
2024/01/26 03:43:14;;;;;;;7.60;7.40;;;10.90;36.10;;;;;;6222482;23;20197;-78
2024/01/26 03:45:40;;;;;;;7.30;7.10;;;10.90;36.50;;;;;;6248356;22;20209;-79
2024/01/26 03:48:06;;;;;;;7.73;7.43;;;11.10;36.40;;;;;;6224228;23;20171;-79
2024/01/26 03:50:31;;;;;;;8.10;7.80;;;11.10;35.70;;;;;;6250457;23;20155;-79
2024/01/26 03:52:57;;;;;;;8.07;7.77;;;11.20;35.70;;;;;;6252403;23;20370;-79
2024/01/26 03:55:22;;;;;;;8.33;8.03;;;11.10;35.40;;;;;;6251240;22;20596;-78
2024/01/26 03:57:48;;;;;;;8.53;8.03;;;11.00;36.00;;;;;;6224968;23;20182;-79
2024/01/26 04:00:14;;;;;;;8.03;7.73;;;11.00;36.50;;;;;;6225341;23;20215;-78
2024/01/26 04:02:40;;;;;;;7.77;7.57;;;11.00;36.00;;;;;;6253677;23;20159;-79
2024/01/26 04:05:05;;;;;;;8.13;7.93;;;10.90;36.20;;;;;;6224260;23;20422;-79
2024/01/26 04:07:31;;;;;;;7.93;7.53;;;11.00;36.60;;;;;;6252383;23;20199;-78
2024/01/26 04:09:57;;;;;;;8.30;7.90;;;11.00;36.20;;;;;;6229105;23;20166;-76
2024/01/26 04:12:23;;;;;;;8.13;7.83;;;11.00;36.00;;;;;;6262110;23;20154;-78
2024/01/26 04:14:49;;;;;;;8.17;7.77;;;10.90;36.30;;;;;;6259494;22;20167;-78
2024/01/26 04:17:14;;;;;;;8.03;7.77;;;10.80;36.90;;;;;;6254585;23;20397;-79
2024/01/26 04:19:40;;;;;;;8.57;8.27;;;11.00;36.60;;;;;;6224614;23;20383;-79
2024/01/26 04:22:06;;;;;;;8.13;7.90;;;11.00;36.00;;;;;;6251545;23;20147;-79
2024/01/26 04:24:31;;;;;;;8.27;8.07;;;10.90;36.40;;;;;;6223721;23;20195;-79
2024/01/26 04:26:57;;;;;;;8.20;7.80;;;10.80;36.20;;;;;;6225124;23;20155;-79
2024/01/26 04:29:22;;;;;;;8.70;8.40;;;11.00;36.90;;;;;;6251881;23;20173;-79
2024/01/26 04:31:48;;;;;;;7.70;7.40;;;11.10;36.20;;;;;;6252111;23;20144;-78
2024/01/26 04:34:13;;;;;;;8.10;7.80;;;11.20;35.50;;;;;;6249201;22;20163;-78
2024/01/26 04:36:46;;;;;;;8.20;7.90;;;11.30;35.40;;;;;;6249265;23;20236;-77
2024/01/26 04:39:11;;;;;;;8.20;7.90;;;11.40;34.20;;;;;;6248970;23;20135;-78
2024/01/26 04:41:37;;;;;;;8.57;8.20;;;11.50;34.20;;;;;;6223564;23;20382;-78
2024/01/26 04:44:02;;;;;;;7.60;7.40;;;11.50;34.20;;;;;;6251297;22;20167;-79
2024/01/26 04:46:28;;;;;;;8.40;8.10;;;11.60;33.30;;;;;;6224204;23;20533;-79
2024/01/26 04:48:53;;;;;;;8.63;8.33;;;11.60;33.30;;;;;;6223493;23;20158;-79
2024/01/26 04:51:19;;;;;;;8.47;8.17;;;11.70;33.00;;;;;;6251460;23;20151;-79
2024/01/26 04:53:44;;;;;;;8.27;7.97;;;11.90;33.10;;;;;;6250904;22;20178;-78
2024/01/26 04:56:11;;;;;;;8.23;8.03;;;12.00;32.40;;;;;;6223824;23;20196;-78
2024/01/26 04:58:37;;;;;;;7.20;7.00;;;12.00;31.30;;;;;;6221918;23;20205;-78
2024/01/26 05:01:04;;;;;;;8.07;7.77;;;12.00;31.50;;;;;;6248323;23;20375;-78
2024/01/26 05:03:30;;;;;;;8.30;7.90;;;12.00;31.00;;;;;;6221526;23;20386;-77
2024/01/26 05:05:55;;;;;;;9.00;8.70;;;12.00;32.00;;;;;;6247842;22;20414;-77
2024/01/26 05:08:21;;;;;;;8.60;8.30;;;11.80;31.10;;;;;;6248898;23;20956;-77
2024/01/26 05:10:47;;;;;;;10.20;9.90;;;11.80;31.80;;;;;;6249583;23;20152;-77
2024/01/26 05:13:12;;;;;;;9.07;8.63;;;11.70;31.30;;;;;;6222438;23;20473;-78
2024/01/26 05:15:38;;;;;;;8.90;8.60;;;11.60;31.60;;;;;;6221212;23;20262;-78
2024/01/26 05:18:04;;;;;;;8.60;8.30;;;11.50;32.80;;;;;;6248681;23;20222;-78
2024/01/26 05:20:30;;;;;;;8.13;7.70;;;11.30;33.20;;;;;;6221456;23;20182;-78
2024/01/26 05:22:55;;;;;;;9.03;8.73;;;11.10;34.20;;;;;;6247799;23;20398;-78
2024/01/26 05:25:21;;;;;;;8.57;8.37;;;10.90;35.50;;;;;;6234247;23;20191;-78
2024/01/26 05:27:46;;;;;;;8.40;8.10;;;10.90;36.10;;;;;;6248259;23;20177;-79
2024/01/26 05:30:12;;;;;;;7.70;7.30;;;10.80;36.10;;;;;;6246983;23;20151;-78
2024/01/26 05:32:38;;;;;;;7.27;7.07;;;10.90;36.50;;;;;;6248641;23;20148;-77
2024/01/26 05:35:04;;;;;;;7.87;7.57;;;10.90;36.20;;;;;;6246666;22;20175;-77
2024/01/26 05:37:29;;;;;;;8.20;7.90;;;10.90;36.60;;;;;;6250500;22;20156;-79
2024/01/26 05:39:55;;;;;;;7.87;7.57;;;10.90;36.50;;;;;;6250140;23;20370;-78
2024/01/26 05:42:20;;;;;;;8.20;7.90;;;10.80;36.40;;;;;;6251510;23;20178;-80
2024/01/26 05:44:46;;;;;;;7.47;7.17;;;10.80;36.90;;;;;;6250211;22;20206;-80
2024/01/26 05:47:11;;;;;;;6.80;6.60;;;10.80;37.00;;;;;;6251382;23;20155;-79
2024/01/26 05:49:37;;;;;;;7.43;7.23;;;10.70;37.90;;;;;;6252625;23;20250;-79
2024/01/26 05:52:02;;;;;;;7.30;7.10;;;10.70;37.20;;;;;;6252245;23;20171;-78
2024/01/26 05:54:28;;;;;;;7.60;7.40;;;10.60;37.40;;;;;;6249933;22;20518;-79
2024/01/26 05:56:53;;;;;;;6.70;6.50;;;10.60;37.50;;;;;;6250818;23;20160;-79
2024/01/26 05:59:19;;;;;;;7.73;7.47;;;10.50;38.00;;;;;;6250665;23;20198;-79
2024/01/26 06:01:45;;;;;;;7.67;7.37;;;10.50;39.00;;;;;;6252626;23;20158;-77
2024/01/26 06:04:10;;;;;;;7.00;6.80;;;10.50;38.20;;;;;;6251759;22;20175;-79
2024/01/26 06:06:36;;;;;;;7.17;6.87;;;10.50;38.90;;;;;;6252102;23;20183;-79
2024/01/26 06:09:01;;;;;;;7.90;7.57;;;10.40;38.60;;;;;;6250634;23;20207;-79
2024/01/26 06:11:27;;;;;;;7.30;7.10;;;10.40;38.40;;;;;;6250544;23;20155;-77
2024/01/26 06:13:52;;;;;;;7.70;7.20;;;10.40;38.60;;;;;;6252036;22;20151;-80
2024/01/26 06:16:18;;;;;;;7.40;7.10;;;10.40;38.50;;;;;;6249546;23;20246;-79
2024/01/26 06:18:44;;;;;;;6.70;6.50;;;10.40;38.60;;;;;;6247806;22;20152;-81
2024/01/26 06:21:12;;;;;;;7.53;7.10;;;10.40;38.10;;;;;;6249242;23;20386;-80
2024/01/26 06:23:39;;;;;;;8.20;7.90;;;10.50;38.00;;;;;;6250642;23;20159;-81
2024/01/26 06:26:04;;;;;;;7.43;7.03;;;10.50;38.20;;;;;;6273057;22;20446;-81
2024/01/26 06:28:30;;;;;;;7.87;7.47;;;10.50;38.00;;;;;;6257393;23;20397;-81
2024/01/26 06:30:55;;;;;;;7.60;7.40;;;10.50;37.70;;;;;;6259730;23;20175;-81
2024/01/26 06:33:21;;;;;;;8.20;7.80;;;10.60;37.40;;;;;;6249899;23;20144;-82
2024/01/26 06:35:46;;;;;;;8.20;7.90;;;10.60;37.40;;;;;;6249697;23;20175;-82
2024/01/26 06:38:12;;;;;;;7.33;7.03;;;10.60;37.00;;;;;;6249866;23;20159;-81
2024/01/26 06:40:39;;;;;;;7.37;7.07;;;10.60;37.10;;;;;;6250887;22;20191;-83
2024/01/26 06:43:08;;;;;;;8.33;8.00;;;10.60;36.80;;;;;;6249560;23;20382;-81
2024/01/26 06:45:34;;;;;;;6.77;6.50;;;10.60;37.40;;;;;;6250565;23;20422;-79
2024/01/26 06:48:00;;;;;;;8.33;7.60;;;10.50;37.10;;;;;;6252507;23;20438;-80
2024/01/26 06:50:26;;;;;;;7.83;7.43;;;10.60;37.40;;;;;;6252444;22;20374;-79
2024/01/26 06:52:51;;;;;;;7.20;6.90;;;10.50;37.20;;;;;;6250223;23;20412;-81
2024/01/26 06:55:17;;;;;;;7.27;6.97;;;10.50;38.10;;;;;;6246364;23;20262;-80
2024/01/26 06:57:43;;;;;;;8.17;7.70;;;10.60;38.20;;;;;;6234991;23;20229;-78
2024/01/26 07:00:09;;;;;;;7.43;7.13;;;10.60;38.50;;;;;;6234849;23;20648;-80
2024/01/26 07:02:35;;;;;;;7.27;7.07;;;10.60;37.90;;;;;;6237278;22;20381;-77
2024/01/26 07:05:00;;;;;;;7.17;6.93;;;10.70;38.00;;;;;;6233843;23;20421;-76
2024/01/26 07:07:26;;;;;;;7.40;7.10;;;10.70;37.40;;;;;;6242945;22;20371;-78
2024/01/26 07:09:51;;;;;;;6.70;6.50;;;10.70;36.80;;;;;;6249552;23;20147;-81
2024/01/26 07:12:17;;;;;;;7.63;7.20;;;10.80;37.10;;;;;;6248662;23;20155;-80
2024/01/26 07:14:42;;;;;;;7.60;7.40;;;10.80;36.50;;;;;;6247034;23;20577;-81
2024/01/26 07:17:08;;;;;;;7.50;7.23;;;10.80;36.10;;;;;;6244303;23;20155;-79
2024/01/26 07:19:34;;;;;;;7.23;7.03;;;10.80;35.80;;;;;;6249075;23;20201;-79
2024/01/26 07:21:59;;;;;;;8.67;8.27;;;10.90;35.80;;;;;;6256163;23;20181;-79
2024/01/26 07:24:25;;;;;;;8.80;8.40;;;10.90;35.60;;;;;;6248578;23;20199;-80
2024/01/26 07:26:50;;;;;;;7.10;6.80;;;11.00;35.60;;;;;;6244302;23;20163;-79
2024/01/26 07:29:16;;;;;;;7.60;7.30;;;11.00;35.30;;;;;;6249006;23;20195;-78
2024/01/26 07:31:43;;;;;;;7.83;7.53;;;11.10;34.70;;;;;;6249157;22;20486;-77
2024/01/26 07:34:09;;;;;;;7.63;7.23;;;11.10;35.00;;;;;;6246698;23;20152;-77
2024/01/26 07:36:37;;;;;;;6.97;6.77;;;11.10;34.70;;;;;;6250224;23;20811;-78
2024/01/26 07:39:05;;;;;;;8.20;7.90;;;11.10;34.20;;;;;;6247737;22;20162;-78
2024/01/26 07:41:31;;;;;;;7.90;7.50;;;11.00;35.50;;;;;;6246375;23;20390;-77
2024/01/26 07:43:56;;;;;;;8.00;7.70;;;11.10;35.40;;;;;;6249094;22;20375;-80
2024/01/26 07:46:22;;;;;;;7.73;7.40;;;11.20;34.90;;;;;;6247143;23;20656;-79
2024/01/26 07:48:47;;;;;;;7.00;6.50;;;11.10;34.50;;;;;;6249637;23;20647;-78
2024/01/26 07:51:13;;;;;;;7.47;7.17;;;11.10;34.80;;;;;;6247373;23;20148;-79
2024/01/26 07:53:38;;;;;;;6.70;6.50;;;11.10;34.80;;;;;;6248722;23;20147;-80
2024/01/26 07:56:04;;;;;;;7.63;7.33;;;11.10;34.60;;;;;;6249140;23;20179;-79
2024/01/26 07:58:29;;;;;;;7.20;7.00;;;11.20;34.40;;;;;;6248828;23;20167;-79
2024/01/26 08:00:55;;;;;;;7.60;7.40;;;11.20;34.40;;;;;;6251155;23;20151;-80
2024/01/26 08:03:20;;;;;;;7.70;7.33;;;11.20;34.30;;;;;;6252606;23;20147;-80
2024/01/26 08:05:46;;;;;;;8.50;8.20;;;11.20;34.00;;;;;;6254849;23;20219;-81
2024/01/26 08:08:33;;;;;;;8.40;8.00;;;11.30;34.40;;;;;;6278770;22;20198;-84
2024/01/26 08:11:03;;;;;;;7.50;7.30;;;11.30;33.90;;;;;;6254509;22;20538;-84
2024/01/26 08:14:28;;;;;;;7.83;7.53;;;11.40;33.60;;;;;;6256464;22;20373;-86
2024/01/26 08:16:57;;;;;;;8.07;7.77;;;11.40;33.90;;;;;;6228790;23;20406;-84
2024/01/26 08:19:31;;;;;;;8.80;8.50;;;11.40;33.00;;;;;;6250186;23;20911;-86
2024/01/26 08:21:57;;;;;;;8.63;8.23;;;11.50;32.80;;;;;;6235720;23;20374;-87
2024/01/26 08:27:58;;;;;;;8.73;8.43;;;11.40;33.10;;;;;;6271302;23;20404;-87
2024/01/26 08:30:43;;;;;;;8.50;8.20;;;11.50;33.50;;;;;;6271787;22;20402;-88
2024/01/26 08:33:24;;;;;;;8.50;8.20;;;11.50;33.10;;;;;;6271251;23;20373;-87
2024/01/26 08:35:50;;;;;;;8.13;7.93;;;11.40;33.10;;;;;;6247605;23;20382;-84
2024/01/26 08:41:46;;;;;;;8.33;7.93;;;11.40;33.80;;;;;;6067824;23;20166;-83
2024/01/26 08:44:24;;;;;;;7.40;7.10;;;11.40;33.50;;;;;;6225916;23;20366;-83
2024/01/26 08:47:06;;;;;;;8.00;7.70;;;11.40;33.70;;;;;;6253183;23;20879;-84
2024/01/26 08:50:43;;;;;;;;;;;;;;;;;;;;;
2024/01/26 08:57:10;;;;;;;8.00;7.50;;;11.30;34.30;;;;;;6251969;23;20836;-85
2024/01/26 09:00:08;;;;;;;;;;;;;;;;;;;;;
2024/01/26 09:03:31;;;;;;;7.13;6.87;;;11.30;34.10;;;;;;6251694;23;20387;-83
2024/01/26 09:06:59;;;;;;;7.90;7.60;;;11.40;34.40;;;;;;6222357;23;20425;-83
2024/01/26 09:09:56;;;;;;;8.10;7.70;;;11.40;34.00;;;;;;6223034;23;20417;-82
2024/01/26 09:13:04;;;;;;;;;;;;;;;;;;;;;
2024/01/26 09:22:45;;;;;;;7.67;7.37;;;11.50;33.80;;;;;;6086191;23;20464;-82
2024/01/26 09:25:50;;;;;;;7.60;7.30;;;11.50;33.40;;;;;;6230321;23;21105;-82
2024/01/26 09:28:19;;;;;;;7.70;7.40;;;11.60;32.90;;;;;;6234039;23;20394;-82
2024/01/26 09:35:14;;;;;;;;;;;;;;;;;;;;;
2024/01/26 09:38:10;;;;;;;7.37;7.03;;;11.70;33.00;;;;;;6069502;23;20490;-85
2024/01/26 09:40:36;;;;;;;8.27;7.97;;;11.70;33.00;;;;;;6047467;23;20388;-81
2024/01/26 09:46:17;;;;;;;8.37;8.07;;;11.90;33.10;;;;;;6057643;23;20242;-84
2024/01/26 09:48:55;;;;;;;7.93;7.53;;;11.90;32.80;;;;;;6043232;23;20387;-84
2024/01/26 09:51:35;;;;;;;7.73;7.33;;;12.00;33.00;;;;;;6067104;23;20387;-84
2024/01/26 09:57:27;;;;;;;6.77;6.30;;;11.90;31.60;;;;;;6233262;23;20708;-83
2024/01/26 09:59:54;;;;;;;6.97;6.77;;;11.90;32.40;;;;;;6226734;23;20405;-85
2024/01/26 10:02:23;;;;;;;7.33;7.13;;;11.90;32.30;;;;;;6224487;23;20386;-82
2024/01/26 10:04:57;;;;;;;7.90;7.60;;;11.90;32.00;;;;;;6250459;23;20750;-84
2024/01/26 10:07:26;;;;;;;7.87;7.57;;;11.90;32.10;;;;;;6232029;23;20421;-84
2024/01/26 10:13:21;;;;;;;7.70;7.50;;;11.90;32.00;;;;;;6252487;23;20680;-87
2024/01/26 10:16:09;;;;;;;7.43;7.20;;;12.00;32.20;;;;;;6251035;22;20811;-86
2024/01/26 10:18:43;;;;;;;7.27;6.87;;;12.00;32.00;;;;;;6249090;23;20383;-85
2024/01/26 10:21:10;;;;;;;7.23;6.90;;;12.00;32.10;;;;;;6250379;23;20386;-85
2024/01/26 10:28:08;;;;;;;;;;;;;;;;;;;;;
2024/01/26 10:34:24;;;;;;;7.83;7.53;;;12.20;31.10;;;;;;6065694;23;20469;-85
2024/01/26 10:37:36;;;;;;;7.60;7.30;;;12.30;31.30;;;;;;6106643;22;20524;-86
2024/01/26 11:04:30;;;;;;;7.63;7.33;;;12.50;29.70;;;;;;6015316;23;20382;-82
2024/01/26 11:17:45;;;;;;;6.83;6.63;;;12.60;29.40;;;;;;6253468;23;20468;-85
2024/01/26 11:20:38;;;;;;;6.67;6.47;;;12.70;29.50;;;;;;6252464;23;20370;-86
2024/01/26 11:24:14;;;;;;;6.17;5.97;;;12.70;29.80;;;;;;6254255;23;20492;-86
2024/01/26 11:34:27;;;;;;;7.73;7.33;;;12.70;29.70;;;;;;6246635;23;20378;-86
2024/01/26 11:44:41;;;;;;;7.03;6.73;;;12.70;30.40;;;;;;6129314;22;20966;-85
2024/01/26 11:48:01;;;;;;;;;;;;;;;;;;;;;
2024/01/26 11:51:43;;;;;;;6.83;6.63;;;12.70;30.50;;;;;;6207641;23;20398;-85
2024/01/26 11:54:09;;;;;;;7.80;7.53;;;12.70;30.70;;;;;;6155967;23;20412;-83
2024/01/26 11:56:49;;;;;;;7.90;7.60;;;12.80;30.50;;;;;;6132039;23;20401;-85
2024/01/26 11:59:18;;;;;;;7.07;6.80;;;12.80;31.50;;;;;;6227863;23;20398;-82
2024/01/26 12:01:46;;;;;;;8.40;8.10;;;12.70;32.60;;;;;;6250083;23;20408;-83
2024/01/26 12:04:23;;;;;;;7.70;7.40;;;12.70;32.60;;;;;;6252562;23;20779;-83
2024/01/26 12:06:54;;;;;;;7.20;7.00;;;12.60;33.40;;;;;;6250954;23;20448;-83
2024/01/26 12:09:31;;;;;;;7.10;6.80;;;12.60;33.80;;;;;;6252723;23;20943;-84
2024/01/26 12:12:56;;;;;;;7.60;7.40;;;12.60;33.80;;;;;;6251820;23;20378;-85
2024/01/26 12:18:38;;;;;;;9.10;8.40;;;12.40;33.60;;;;;;6160008;23;20388;-85
2024/01/26 12:21:06;;;;;;;7.10;6.90;;;12.50;33.40;;;;;;6245923;23;20397;-84
2024/01/26 12:23:38;;;;;;;6.80;6.60;;;12.50;33.00;;;;;;6251665;23;20382;-83
2024/01/26 12:26:16;;;;;;;6.60;6.30;;;12.60;32.90;;;;;;6251425;23;20450;-83
2024/01/26 12:28:48;;;;;;;6.30;6.10;;;12.50;33.10;;;;;;6256645;22;20389;-84
2024/01/26 12:45:56;;;;;;;6.17;5.97;;;12.60;32.90;;;;;;6039116;22;20532;-83
2024/01/26 12:55:20;;;;;;;6.00;5.80;;;12.50;35.40;;;;;;6267256;22;20402;-83
2024/01/26 12:57:49;;;;;;;6.30;6.10;;;12.50;34.60;;;;;;6266775;22;20407;-84
2024/01/26 13:00:40;;;;;;;6.43;6.23;;;12.50;34.70;;;;;;6266361;22;20405;-86
2024/01/26 13:03:10;;;;;;;7.07;6.73;;;12.50;35.00;;;;;;6265327;22;20427;-84
2024/01/26 13:05:36;;;;;;;7.30;7.00;;;12.60;36.10;;;;;;6293990;22;20414;-87
2024/01/26 13:08:02;;;;;;;6.50;6.20;;;12.50;35.70;;;;;;6261343;22;20428;-85
2024/01/26 13:10:48;;;;;;;;;;;;;;;;;;;;;
2024/01/26 13:13:21;;;;;;;6.17;6.00;;;12.50;36.50;;;;;;6293184;22;20138;-86
2024/01/26 13:15:46;;;;;;;5.83;5.63;;;12.50;37.20;;;;;;6264575;22;20389;-85
2024/01/26 13:18:13;;;;;;;5.93;5.73;;;12.50;37.80;;;;;;6267995;22;20174;-85
2024/01/26 13:20:53;;;;;;;6.03;5.80;;;12.40;38.00;;;;;;6263452;22;20155;-84
2024/01/26 13:33:58;;;;;;;6.00;5.80;;;12.50;38.40;;;;;;6156806;23;20516;-87
2024/01/26 13:39:15;;;;;;;5.60;5.50;;;12.50;38.90;;;;;;6222027;23;20497;-86
2024/01/26 13:45:39;;;;;;;5.27;5.07;;;12.40;40.30;;;;;;6109742;23;20437;-85
2024/01/26 13:51:09;;;;;;;5.93;5.73;;;12.40;41.20;;;;;;6250657;22;20713;-86
2024/01/26 13:53:46;;;;;;;5.50;5.30;;;12.50;41.20;;;;;;6283565;22;20378;-83
2024/01/26 13:59:48;;;;;;;5.87;5.57;;;12.40;40.90;;;;;;6171832;23;20807;-85
2024/01/26 14:02:20;;;;;;;5.23;5.03;;;12.30;41.50;;;;;;6258644;23;20404;-84
2024/01/26 14:04:50;;;;;;;5.37;5.17;;;12.30;42.40;;;;;;6255556;23;20378;-85
2024/01/26 14:11:10;;;;;;;4.93;4.73;;;12.20;43.50;;;;;;6258802;23;20432;-84
2024/01/26 14:13:59;;;;;;;5.83;5.53;;;12.20;44.80;;;;;;6258364;23;20370;-84
2024/01/26 14:20:17;;;;;;;5.07;4.90;;;12.10;46.10;;;;;;6255880;22;20420;-82
2024/01/26 14:26:51;;;;;;;5.07;4.87;;;12.00;47.50;;;;;;6226165;23;20420;-86
2024/01/26 14:29:17;;;;;;;3.90;3.80;;;11.80;47.70;;;;;;6179612;23;20389;-85
2024/01/26 14:31:52;;;;;;;4.67;4.57;;;11.80;48.50;;;;;;6256126;23;20386;-86
2024/01/26 14:34:26;;;;;;;4.80;4.63;;;11.70;48.50;;;;;;6276620;22;20370;-86
2024/01/26 14:37:27;;;;;;;4.47;4.20;;;11.80;48.90;;;;;;6251001;23;20422;-87
2024/01/26 14:40:30;;;;;;;4.73;4.53;;;11.80;49.20;;;;;;6254389;23;20888;-85
2024/01/26 14:43:17;;;;;;;4.73;4.63;;;11.80;48.80;;;;;;6248777;23;20389;-86
2024/01/26 14:46:11;;;;;;;4.90;4.70;;;11.80;49.10;;;;;;6252395;23;21017;-86
2024/01/26 14:48:46;;;;;;;4.80;4.60;;;11.90;49.40;;;;;;6202198;23;20390;-86
2024/01/26 14:51:43;;;;;;;;;;;;;;;;;;;;;
2024/01/26 14:57:49;;;;;;;5.57;5.20;;;11.80;49.50;;;;;;6260342;23;20437;-83
2024/01/26 15:00:36;;;;;;;4.60;4.40;;;11.80;49.00;;;;;;6258934;23;20793;-83
2024/01/26 15:03:22;;;;;;;6.97;6.67;;;11.80;48.50;;;;;;6256442;23;20410;-84
2024/01/26 15:05:51;;;;;;;5.60;5.40;;;11.80;48.80;;;;;;6258315;23;20446;-84
2024/01/26 15:23:56;;;;;;;5.90;5.80;;;11.90;48.50;;;;;;6021539;23;20413;-85
2024/01/26 19:06:15;;;;;;;7.57;7.20;;;11.50;22.30;;;;;;6275739;22;20439;-83
2024/01/26 19:12:17;;;;;;;8.90;8.40;;;11.60;21.50;;;;;;6275718;22;20480;-86
2024/01/26 19:18:53;;;;;;;;;;;;;;;;;;;;;
2024/01/26 19:21:59;;;;;;;9.20;8.70;;;11.60;21.60;;;;;;6242526;22;20376;-85
2024/01/26 19:33:00;;;;;;;7.30;6.70;;;10.90;21.00;;;;;;6291561;22;20417;-85
2024/01/26 19:38:55;;;;;;;7.53;7.13;;;10.70;21.80;;;;;;6133807;23;20393;-86
2024/01/26 19:55:12;;;;;;;7.10;6.70;;;10.80;20.10;;;;;;6022459;23;20434;-85
2024/01/26 19:57:49;;;;;;;7.43;6.93;;;10.60;20.00;;;;;;6137103;23;20420;-84
2024/01/26 20:01:21;;;;;;;;;;;;;;;;;;;;;
2024/01/26 20:03:49;;;;;;;6.07;5.77;;;10.30;19.60;;;;;;6133939;23;20437;-84
2024/01/26 20:07:06;;;;;;;6.60;6.30;;;10.50;18.70;;;;;;6115396;23;20421;-84
2024/01/26 20:09:45;;;;;;;6.10;5.80;;;10.60;18.50;;;;;;6138249;23;20553;-83
2024/01/26 20:12:40;;;;;;;7.23;6.50;;;10.30;20.00;;;;;;6113660;23;20377;-84
2024/01/26 20:15:11;;;;;;;6.27;5.97;;;10.10;20.10;;;;;;6136168;23;20738;-81
2024/01/26 20:17:36;;;;;;;7.47;7.07;;;10.00;20.10;;;;;;6247071;23;20497;-82
2024/01/26 20:20:03;;;;;;;7.10;6.70;;;9.90;21.10;;;;;;6223114;23;20397;-81
2024/01/26 20:22:50;;;;;;;7.27;6.87;;;9.80;21.30;;;;;;6223084;23;20409;-85
2024/01/26 20:25:18;;;;;;;6.73;6.23;;;10.00;19.80;;;;;;6196014;23;20919;-82